createdAt,value
2022-10-08T00:02:05.891Z,5.57
2022-10-08T00:04:33.152Z,5.27
2022-10-08T00:07:00.071Z,5.61
2022-10-08T00:09:27.178Z,5.55
2022-10-08T00:11:54.085Z,5.63
2022-10-08T00:14:23.638Z,5.63
2022-10-08T00:16:50.778Z,5.60
2022-10-08T00:19:17.685Z,5.48
2022-10-08T00:21:45.366Z,5.56
2022-10-08T00:24:17.190Z,5.27
2022-10-08T00:26:44.755Z,5.56
2022-10-08T00:29:13.866Z,5.70
2022-10-08T00:31:41.991Z,5.71
2022-10-08T00:34:10.009Z,5.76
2022-10-08T00:36:37.574Z,5.70
2022-10-08T00:39:06.318Z,5.71
2022-10-08T00:41:34.794Z,5.54
2022-10-08T00:44:04.000Z,5.46
2022-10-08T00:46:35.113Z,5.51
2022-10-08T00:49:07.042Z,5.52
2022-10-08T00:51:34.261Z,5.47
2022-10-08T00:54:02.140Z,5.56
2022-10-08T00:56:31.446Z,5.57
2022-10-08T00:58:58.635Z,5.49
2022-10-08T01:01:25.603Z,5.45
2022-10-08T01:03:52.505Z,5.39
2022-10-08T01:06:22.423Z,5.26
2022-10-08T01:08:55.961Z,5.37
2022-10-08T01:11:31.962Z,5.44
2022-10-08T01:14:11.177Z,5.45
2022-10-08T01:16:45.171Z,5.50
2022-10-08T01:19:11.952Z,5.56
2022-10-08T01:21:43.499Z,5.51
2022-10-08T01:24:19.934Z,5.54
2022-10-08T01:26:54.131Z,5.48
2022-10-08T01:29:23.239Z,5.37
2022-10-08T01:31:53.189Z,5.51
2022-10-08T01:34:24.009Z,5.82
2022-10-08T01:36:52.100Z,5.93
2022-10-08T01:39:21.286Z,6.07
2022-10-08T01:41:51.514Z,6.16
2022-10-08T01:44:24.665Z,6.15
2022-10-08T01:46:53.048Z,6.31
2022-10-08T01:49:23.001Z,6.34
2022-10-08T01:51:55.302Z,6.52
2022-10-08T01:54:24.834Z,6.51
2022-10-08T01:56:52.937Z,6.51
2022-10-08T01:59:31.310Z,6.51
2022-10-08T02:01:58.432Z,6.64
2022-10-08T02:04:33.527Z,6.76
2022-10-08T02:07:03.942Z,6.98
2022-10-08T02:09:32.505Z,7.05
2022-10-08T02:11:59.407Z,7.11
2022-10-08T02:14:27.689Z,7.09
2022-10-08T02:17:14.812Z,7.21
2022-10-08T02:19:44.973Z,7.21
2022-10-08T02:22:14.636Z,7.31
2022-10-08T02:24:46.010Z,7.43
2022-10-08T02:27:13.522Z,7.57
2022-10-08T02:29:47.509Z,7.58
2022-10-08T02:32:22.318Z,7.36
2022-10-08T02:35:15.564Z,7.14
2022-10-08T02:37:48.953Z,6.99
2022-10-08T02:40:17.731Z,6.87
2022-10-08T02:42:49.582Z,6.87
2022-10-08T02:45:16.802Z,6.88
2022-10-08T02:47:45.486Z,6.80
2022-10-08T02:50:15.120Z,6.69
2022-10-08T02:52:43.985Z,6.57
2022-10-08T02:55:26.712Z,6.44
2022-10-08T02:58:01.980Z,6.54
2022-10-08T03:00:34.726Z,6.73
2022-10-08T03:03:28.242Z,6.89
2022-10-08T03:05:57.034Z,6.85
2022-10-08T03:08:24.282Z,6.95
2022-10-08T03:10:51.522Z,7.05
2022-10-08T03:13:19.345Z,6.97
2022-10-08T03:15:48.837Z,7.01
2022-10-08T03:18:15.972Z,7.17
2022-10-08T03:20:45.734Z,7.20
2022-10-08T03:23:16.008Z,7.32
2022-10-08T03:25:42.972Z,7.38
2022-10-08T03:28:09.940Z,7.44
2022-10-08T03:30:37.276Z,7.50
2022-10-08T03:33:04.453Z,7.62
2022-10-08T03:35:32.213Z,7.57
2022-10-08T03:37:59.505Z,7.62
2022-10-08T03:40:26.423Z,7.75
2022-10-08T03:42:53.252Z,7.74
2022-10-08T03:45:20.258Z,7.63
2022-10-08T03:47:50.747Z,7.57
2022-10-08T03:50:17.757Z,7.49
2022-10-08T03:52:45.115Z,7.34
2022-10-08T03:55:12.070Z,7.18
2022-10-08T03:57:39.001Z,7.26
2022-10-08T04:00:06.629Z,7.17
2022-10-08T04:02:33.617Z,6.95
2022-10-08T04:05:00.577Z,6.95
2022-10-08T04:07:27.934Z,7.02
2022-10-08T04:09:54.723Z,7.08
2022-10-08T04:12:21.627Z,7.09
2022-10-08T04:14:48.798Z,7.02
2022-10-08T04:17:15.679Z,7.08
2022-10-08T04:19:42.585Z,7.12
2022-10-08T04:22:09.596Z,7.14
2022-10-08T04:24:36.462Z,6.99
2022-10-08T04:27:03.385Z,7.21
2022-10-08T04:29:30.636Z,7.42
2022-10-08T04:31:59.925Z,7.45
2022-10-08T04:34:26.821Z,7.37
2022-10-08T04:36:53.881Z,7.50
2022-10-08T04:39:20.692Z,7.51
2022-10-08T04:41:47.584Z,7.44
2022-10-08T04:44:14.609Z,7.30
2022-10-08T04:46:41.469Z,7.33
2022-10-08T04:49:09.344Z,7.22
2022-10-08T04:51:36.580Z,7.31
2022-10-08T04:54:03.529Z,7.35
2022-10-08T04:56:31.957Z,7.34
2022-10-08T04:58:59.757Z,7.44
2022-10-08T05:01:27.670Z,7.56
2022-10-08T05:03:55.682Z,7.63
2022-10-08T05:06:24.539Z,7.67
2022-10-08T05:08:51.599Z,7.47
2022-10-08T05:11:19.206Z,7.45
2022-10-08T05:13:50.662Z,7.15
2022-10-08T05:16:18.458Z,7.05
2022-10-08T05:18:45.877Z,6.95
2022-10-08T05:21:14.794Z,7.02
2022-10-08T05:23:45.021Z,7.05
2022-10-08T05:26:16.918Z,6.98
2022-10-08T05:28:44.469Z,7.08
2022-10-08T05:31:11.466Z,7.17
2022-10-08T05:33:38.828Z,7.09
2022-10-08T05:36:07.066Z,7.28
2022-10-08T05:38:35.257Z,7.33
2022-10-08T05:41:12.842Z,7.32
2022-10-08T05:43:40.104Z,7.49
2022-10-08T05:46:07.094Z,7.61
2022-10-08T05:48:34.112Z,7.57
2022-10-08T05:51:08.600Z,7.26
2022-10-08T05:53:37.256Z,7.24
2022-10-08T05:56:05.382Z,7.25
2022-10-08T05:58:34.097Z,7.38
2022-10-08T06:01:02.048Z,7.29
2022-10-08T06:03:29.353Z,7.48
2022-10-08T06:06:01.532Z,7.44
2022-10-08T06:08:28.461Z,7.36
2022-10-08T06:10:55.860Z,7.43
2022-10-08T06:13:23.200Z,7.48
2022-10-08T06:15:56.332Z,7.62
2022-10-08T06:18:24.164Z,7.71
2022-10-08T06:20:51.077Z,7.60
2022-10-08T06:23:18.240Z,7.62
2022-10-08T06:25:45.467Z,7.85
2022-10-08T06:28:12.723Z,7.94
2022-10-08T06:30:41.482Z,8.00
2022-10-08T06:33:09.449Z,7.93
2022-10-08T06:35:37.361Z,8.07
2022-10-08T06:38:04.551Z,8.20
2022-10-08T06:40:32.582Z,8.19
2022-10-08T06:42:59.620Z,8.38
2022-10-08T06:45:26.553Z,8.31
2022-10-08T06:47:53.876Z,8.32
2022-10-08T06:50:20.787Z,8.34
2022-10-08T06:52:49.443Z,8.38
2022-10-08T06:55:16.846Z,8.56
2022-10-08T06:57:43.736Z,8.72
2022-10-08T07:00:10.915Z,9.14
2022-10-08T07:02:38.128Z,9.48
2022-10-08T07:05:05.350Z,9.71
2022-10-08T07:07:32.213Z,9.77
2022-10-08T07:09:59.418Z,9.85
2022-10-08T07:12:26.378Z,9.34
2022-10-08T07:14:53.244Z,9.07
2022-10-08T07:17:20.815Z,9.05
2022-10-08T07:19:47.695Z,8.98
2022-10-08T07:22:14.814Z,8.97
2022-10-08T07:24:41.696Z,8.98
2022-10-08T07:27:08.558Z,8.98
2022-10-08T07:29:36.710Z,9.10
2022-10-08T07:32:03.956Z,9.27
2022-10-08T07:34:30.816Z,9.43
2022-10-08T07:36:57.928Z,9.43
2022-10-08T07:39:24.848Z,9.47
2022-10-08T07:41:51.707Z,9.42
2022-10-08T07:44:18.938Z,9.31
2022-10-08T07:46:47.089Z,9.48
2022-10-08T07:49:14.694Z,9.57
2022-10-08T07:51:41.906Z,9.62
2022-10-08T07:54:11.998Z,10.00
2022-10-08T07:56:38.768Z,10.28
2022-10-08T07:59:06.108Z,10.50
2022-10-08T08:01:33.510Z,10.57
2022-10-08T08:04:05.127Z,10.74
2022-10-08T08:06:33.540Z,11.03
2022-10-08T08:09:01.379Z,11.57
2022-10-08T08:11:28.676Z,11.85
2022-10-08T08:13:55.838Z,12.39
2022-10-08T08:16:25.550Z,12.18
2022-10-08T08:18:54.006Z,12.55
2022-10-08T08:21:22.902Z,13.16
2022-10-08T08:23:50.619Z,13.27
2022-10-08T08:26:18.933Z,13.56
2022-10-08T08:28:49.922Z,13.92
2022-10-08T08:31:18.749Z,15.00
2022-10-08T08:33:51.222Z,15.02
2022-10-08T08:36:19.144Z,15.62
2022-10-08T08:38:46.696Z,15.27
2022-10-08T08:41:29.036Z,14.38
2022-10-08T08:44:03.495Z,13.21
2022-10-08T08:46:33.922Z,13.53
2022-10-08T08:49:05.684Z,13.44
2022-10-08T08:51:32.553Z,13.84
2022-10-08T08:54:00.119Z,14.78
2022-10-08T08:56:28.110Z,15.64
2022-10-08T08:59:00.391Z,15.40
2022-10-08T09:01:27.525Z,15.32
2022-10-08T09:04:01.825Z,14.75
2022-10-08T09:06:29.829Z,14.55
2022-10-08T09:08:58.845Z,14.44
2022-10-08T09:11:26.178Z,15.40
2022-10-08T09:13:57.696Z,15.32
2022-10-08T09:16:26.898Z,14.41
2022-10-08T09:18:54.189Z,14.34
2022-10-08T09:21:21.938Z,14.42
2022-10-08T09:23:48.841Z,14.36
2022-10-08T09:26:16.627Z,14.90
2022-10-08T09:28:44.676Z,15.19
2022-10-08T09:31:17.869Z,14.88
2022-10-08T09:33:46.067Z,14.98
2022-10-08T09:36:13.037Z,14.71
2022-10-08T09:38:39.986Z,14.00
2022-10-08T09:41:09.804Z,13.57
2022-10-08T09:43:36.635Z,13.16
2022-10-08T09:46:11.892Z,13.58
2022-10-08T09:48:39.761Z,14.28
2022-10-08T09:51:13.096Z,14.32
2022-10-08T09:53:43.033Z,15.46
2022-10-08T09:56:10.562Z,15.39
2022-10-08T09:58:54.247Z,16.43
2022-10-08T10:01:22.188Z,17.20
2022-10-08T10:03:51.259Z,17.67
2022-10-08T10:06:25.562Z,19.06
2022-10-08T10:09:01.918Z,19.26
2022-10-08T10:11:33.331Z,17.38
2022-10-08T10:14:05.703Z,17.08
2022-10-08T10:16:38.449Z,15.38
2022-10-08T10:19:09.743Z,15.58
2022-10-08T10:21:40.434Z,15.22
2022-10-08T10:24:07.755Z,16.25
2022-10-08T10:26:37.350Z,16.46
2022-10-08T10:29:04.220Z,16.42
2022-10-08T10:31:33.813Z,16.57
2022-10-08T10:34:30.277Z,16.47
2022-10-08T10:36:59.488Z,16.31
2022-10-08T10:39:29.488Z,15.99
2022-10-08T10:41:56.368Z,16.34
2022-10-08T10:44:26.933Z,16.51
2022-10-08T10:46:56.582Z,15.65
2022-10-08T10:49:30.080Z,15.38
2022-10-08T10:51:57.210Z,15.23
2022-10-08T10:54:59.563Z,15.45
2022-10-08T10:57:35.549Z,14.53
2022-10-08T11:00:20.504Z,14.62
2022-10-08T11:02:50.950Z,14.82
2022-10-08T11:05:26.573Z,14.80
2022-10-08T11:07:59.898Z,15.10
2022-10-08T11:10:45.272Z,15.20
2022-10-08T11:13:22.153Z,15.37
2022-10-08T11:16:04.183Z,15.94
2022-10-08T11:18:43.782Z,16.36
2022-10-08T11:21:16.824Z,16.68
2022-10-08T11:23:51.913Z,16.61
2022-10-08T11:26:31.372Z,16.75
2022-10-08T11:28:58.409Z,17.65
2022-10-08T11:31:45.633Z,17.98
2022-10-08T11:34:15.866Z,17.44
2022-10-08T11:37:06.136Z,16.36
2022-10-08T11:40:03.124Z,15.77
2022-10-08T11:42:48.523Z,15.51
2022-10-08T11:45:26.025Z,15.00
2022-10-08T11:47:54.586Z,14.82
2022-10-08T11:50:26.805Z,14.54
2022-10-08T11:52:55.234Z,14.53
2022-10-08T11:55:46.414Z,14.52
2022-10-08T11:58:23.727Z,14.75
2022-10-08T12:00:53.497Z,14.93
2022-10-08T12:03:27.414Z,15.16
2022-10-08T12:05:56.249Z,15.51
2022-10-08T12:08:41.854Z,15.67
2022-10-08T12:11:27.835Z,15.62
2022-10-08T12:14:27.256Z,15.52
2022-10-08T12:16:57.540Z,15.31
2022-10-08T12:19:36.163Z,15.09
2022-10-08T12:22:06.920Z,14.72
2022-10-08T12:24:39.748Z,14.70
2022-10-08T12:27:22.103Z,14.48
2022-10-08T12:30:00.980Z,14.49
2022-10-08T12:32:31.077Z,14.16
2022-10-08T12:34:58.298Z,13.82
2022-10-08T12:37:35.156Z,13.88
2022-10-08T12:40:07.534Z,13.89
2022-10-08T12:42:37.153Z,13.96
2022-10-08T12:45:27.233Z,13.95
2022-10-08T12:47:54.189Z,13.83
2022-10-08T12:50:33.002Z,13.74
2022-10-08T12:53:00.997Z,13.70
2022-10-08T12:55:29.415Z,13.63
2022-10-08T12:57:57.203Z,13.64
2022-10-08T13:00:33.222Z,13.80
2022-10-08T13:03:03.566Z,13.39
2022-10-08T13:05:30.717Z,13.52
2022-10-08T13:07:58.062Z,13.56
2022-10-08T13:10:27.182Z,13.60
2022-10-08T13:13:05.198Z,13.58
2022-10-08T13:15:33.605Z,13.50
2022-10-08T13:18:01.406Z,13.45
2022-10-08T13:20:28.429Z,13.38
2022-10-08T13:22:55.633Z,13.42
2022-10-08T13:25:39.096Z,13.74
2022-10-08T13:28:09.400Z,13.73
2022-10-08T13:30:36.410Z,13.90
2022-10-08T13:33:36.032Z,13.91
2022-10-08T13:36:03.197Z,13.43
2022-10-08T13:38:37.044Z,12.90
2022-10-08T13:41:07.807Z,13.11
2022-10-08T13:43:38.889Z,12.86
2022-10-08T13:46:09.133Z,12.95
2022-10-08T13:48:42.492Z,12.81
2022-10-08T13:51:10.499Z,12.72
2022-10-08T13:53:37.742Z,12.80
2022-10-08T13:56:05.798Z,12.82
2022-10-08T13:58:34.168Z,13.18
2022-10-08T14:01:02.077Z,13.28
2022-10-08T14:03:29.688Z,13.29
2022-10-08T14:05:58.245Z,13.00
2022-10-08T14:08:26.803Z,12.98
2022-10-08T14:10:58.457Z,12.72
2022-10-08T14:13:26.163Z,12.92
2022-10-08T14:15:54.105Z,13.24
2022-10-08T14:18:21.735Z,13.68
2022-10-08T14:20:50.654Z,12.96
2022-10-08T14:23:17.787Z,13.02
2022-10-08T14:25:44.874Z,12.72
2022-10-08T14:28:11.956Z,12.83
2022-10-08T14:30:38.850Z,12.77
2022-10-08T14:33:11.037Z,12.56
2022-10-08T14:35:38.885Z,12.58
2022-10-08T14:38:05.712Z,12.88
2022-10-08T14:40:32.641Z,13.18
2022-10-08T14:43:00.006Z,13.26
2022-10-08T14:45:26.858Z,13.31
2022-10-08T14:47:53.714Z,13.22
2022-10-08T14:50:21.225Z,12.99
2022-10-08T14:52:48.349Z,12.89
2022-10-08T14:55:15.560Z,12.93
2022-10-08T14:57:42.738Z,12.75
2022-10-08T15:00:10.524Z,12.83
2022-10-08T15:02:37.403Z,12.47
2022-10-08T15:05:04.679Z,12.24
2022-10-08T15:07:31.765Z,12.06
2022-10-08T15:09:59.056Z,11.82
2022-10-08T15:12:26.205Z,11.99
2022-10-08T15:14:53.100Z,12.06
2022-10-08T15:17:20.027Z,12.08
2022-10-08T15:19:47.146Z,12.05
2022-10-08T15:22:14.116Z,12.04
2022-10-08T15:24:41.406Z,11.99
2022-10-08T15:27:08.558Z,11.72
2022-10-08T15:29:35.859Z,11.60
2022-10-08T15:32:03.216Z,11.58
2022-10-08T15:34:30.530Z,11.65
2022-10-08T15:36:57.417Z,11.50
2022-10-08T15:39:24.509Z,11.47
2022-10-08T15:41:52.778Z,11.59
2022-10-08T15:44:20.854Z,11.71
2022-10-08T15:46:48.849Z,11.64
2022-10-08T15:49:17.166Z,11.51
2022-10-08T15:51:44.095Z,11.46
2022-10-08T15:54:10.954Z,11.27
2022-10-08T15:56:38.141Z,11.26
2022-10-08T15:59:05.128Z,11.15
2022-10-08T16:01:32.256Z,11.06
2022-10-08T16:04:00.347Z,10.90
2022-10-08T16:06:28.672Z,10.76
2022-10-08T16:08:58.991Z,10.84
2022-10-08T16:11:26.304Z,10.84
2022-10-08T16:13:54.940Z,10.87
2022-10-08T16:16:22.472Z,10.71
2022-10-08T16:18:52.880Z,10.65
2022-10-08T16:21:21.406Z,10.86
2022-10-08T16:23:48.692Z,10.90
2022-10-08T16:26:20.631Z,10.79
2022-10-08T16:28:48.537Z,10.66
2022-10-08T16:31:15.783Z,10.84
2022-10-08T16:33:42.987Z,10.94
2022-10-08T16:36:10.592Z,11.07
2022-10-08T16:38:39.866Z,11.20
2022-10-08T16:41:14.473Z,11.18
2022-10-08T16:43:41.350Z,11.07
2022-10-08T16:46:18.863Z,10.97
2022-10-08T16:48:51.917Z,10.90
2022-10-08T16:51:19.868Z,10.88
2022-10-08T16:53:50.449Z,10.81
2022-10-08T16:56:18.109Z,10.73
2022-10-08T16:58:45.770Z,10.78
2022-10-08T17:01:12.577Z,10.79
2022-10-08T17:03:39.513Z,10.87
2022-10-08T17:06:09.253Z,10.88
2022-10-08T17:08:36.175Z,10.85
2022-10-08T17:11:04.024Z,10.89
2022-10-08T17:13:31.328Z,10.86
2022-10-08T17:16:02.589Z,10.86
2022-10-08T17:18:29.920Z,10.83
2022-10-08T17:20:57.427Z,10.84
2022-10-08T17:23:25.385Z,10.70
2022-10-08T17:25:56.124Z,10.68
2022-10-08T17:28:27.643Z,10.49
2022-10-08T17:30:55.084Z,10.38
2022-10-08T17:33:21.972Z,10.31
2022-10-08T17:35:49.220Z,10.29
2022-10-08T17:38:16.085Z,10.22
2022-10-08T17:40:42.929Z,10.17
2022-10-08T17:43:10.856Z,10.24
2022-10-08T17:45:37.665Z,10.01
2022-10-08T17:48:04.549Z,10.06
2022-10-08T17:50:34.635Z,9.96
2022-10-08T17:53:01.419Z,10.25
2022-10-08T17:55:29.002Z,10.39
2022-10-08T17:57:56.118Z,10.39
2022-10-08T18:00:23.058Z,10.48
2022-10-08T18:02:50.230Z,10.37
2022-10-08T18:05:17.901Z,10.43
2022-10-08T18:07:44.819Z,10.13
2022-10-08T18:10:11.847Z,10.29
2022-10-08T18:12:38.989Z,10.13
2022-10-08T18:15:06.155Z,9.98
2022-10-08T18:17:33.025Z,9.95
2022-10-08T18:20:00.319Z,9.87
2022-10-08T18:22:27.098Z,9.84
2022-10-08T18:24:54.630Z,9.80
2022-10-08T18:27:21.744Z,9.93
2022-10-08T18:29:48.602Z,10.10
2022-10-08T18:32:15.385Z,9.96
2022-10-08T18:34:43.186Z,9.90
2022-10-08T18:37:09.968Z,9.93
2022-10-08T18:39:36.931Z,9.92
2022-10-08T18:42:04.136Z,9.69
2022-10-08T18:44:31.053Z,9.60
2022-10-08T18:47:03.021Z,9.59
2022-10-08T18:49:33.945Z,9.73
2022-10-08T18:52:01.590Z,9.56
2022-10-08T18:54:28.816Z,9.47
2022-10-08T18:56:56.935Z,9.40
2022-10-08T18:59:23.847Z,9.30
2022-10-08T19:01:50.953Z,9.17
2022-10-08T19:04:21.774Z,9.20
2022-10-08T19:06:50.140Z,9.25
2022-10-08T19:09:17.129Z,9.27
2022-10-08T19:11:46.236Z,9.19
2022-10-08T19:14:14.782Z,9.08
2022-10-08T19:16:42.020Z,8.98
2022-10-08T19:19:12.487Z,9.03
2022-10-08T19:21:39.402Z,9.04
2022-10-08T19:24:07.393Z,9.10
2022-10-08T19:26:34.639Z,8.88
2022-10-08T19:29:01.497Z,8.65
2022-10-08T19:31:30.259Z,8.61
2022-10-08T19:33:58.684Z,8.54
2022-10-08T19:36:26.415Z,8.57
2022-10-08T19:39:00.615Z,8.24
2022-10-08T19:41:28.319Z,8.28
2022-10-08T19:43:55.901Z,8.42
2022-10-08T20:08:32.100Z,7.21
2022-10-08T20:11:02.685Z,7.32
2022-10-08T20:13:29.647Z,7.31
2022-10-08T20:15:56.651Z,7.32
2022-10-08T20:18:23.742Z,7.35
2022-10-08T20:20:59.412Z,7.37
2022-10-08T20:23:26.764Z,7.31
2022-10-08T20:25:53.669Z,7.46
2022-10-08T20:28:21.028Z,7.17
2022-10-08T20:30:48.178Z,7.13
2022-10-08T20:33:15.075Z,7.16
2022-10-08T20:35:41.955Z,7.23
2022-10-08T20:38:09.036Z,7.26
2022-10-08T20:40:35.933Z,7.31
2022-10-08T20:43:02.785Z,7.33
2022-10-08T20:45:29.856Z,7.29
2022-10-08T20:47:56.784Z,7.44
2022-10-08T20:50:23.941Z,7.42
2022-10-08T20:52:51.235Z,7.22
2022-10-08T20:55:18.201Z,7.51
2022-10-08T20:57:45.078Z,7.57
2022-10-08T21:00:12.507Z,7.60
2022-10-08T21:02:39.336Z,7.55
2022-10-08T21:05:06.252Z,7.43
2022-10-08T21:07:33.400Z,7.49
2022-10-08T21:10:00.381Z,7.52
2022-10-08T21:12:27.317Z,7.37
2022-10-08T21:14:54.407Z,7.23
2022-10-08T21:17:21.240Z,7.25
2022-10-08T21:19:48.095Z,7.26
2022-10-08T21:22:15.177Z,7.26
2022-10-08T21:24:42.079Z,7.07
2022-10-08T21:27:09.132Z,7.18
2022-10-08T21:29:37.853Z,7.03
2022-10-08T21:32:04.863Z,6.99
2022-10-08T21:34:32.337Z,7.16
2022-10-08T21:36:59.413Z,7.31
2022-10-08T21:39:26.254Z,7.15
2022-10-08T21:41:55.002Z,7.14
2022-10-08T21:44:22.124Z,7.32
2022-10-08T21:46:49.055Z,7.48
2022-10-08T21:49:17.737Z,7.24
2022-10-08T21:51:45.081Z,7.19
2022-10-08T21:54:12.051Z,7.21
2022-10-08T21:56:39.956Z,6.93
2022-10-08T21:59:08.429Z,6.93
2022-10-08T22:01:36.923Z,6.98
2022-10-08T22:04:05.965Z,6.69
2022-10-08T22:06:37.306Z,6.92
2022-10-08T22:09:05.068Z,6.75
2022-10-08T22:11:32.242Z,6.99
2022-10-08T22:13:59.376Z,6.79
2022-10-08T22:16:26.570Z,6.60
2022-10-08T22:18:53.624Z,6.41
2022-10-08T22:21:21.821Z,6.43
2022-10-08T22:23:49.325Z,6.63
2022-10-08T22:26:21.006Z,6.61
2022-10-08T22:28:48.370Z,6.55
2022-10-08T22:31:16.404Z,6.69
2022-10-08T22:33:43.636Z,6.59
2022-10-08T22:36:12.028Z,6.72
2022-10-08T22:38:39.598Z,6.59
2022-10-08T22:41:10.940Z,6.60
2022-10-08T22:43:38.748Z,6.75
2022-10-08T22:46:16.510Z,6.63
2022-10-08T22:48:44.699Z,6.60
2022-10-08T22:51:12.740Z,6.65
2022-10-08T22:53:39.861Z,6.52
2022-10-08T22:56:08.495Z,6.61
2022-10-08T22:58:35.363Z,6.63
2022-10-08T23:01:06.805Z,6.54
2022-10-08T23:03:34.057Z,6.71
2022-10-08T23:06:05.945Z,6.67
2022-10-08T23:08:33.106Z,6.72
2022-10-08T23:11:00.481Z,6.45
2022-10-08T23:13:28.113Z,6.66
2022-10-08T23:16:03.017Z,6.54
2022-10-08T23:18:34.419Z,6.39
2022-10-08T23:21:02.758Z,6.36
2022-10-08T23:23:29.624Z,6.35
2022-10-08T23:25:57.796Z,6.35
2022-10-08T23:28:24.730Z,6.27
2022-10-08T23:30:51.663Z,6.05
2022-10-08T23:33:19.532Z,6.16
2022-10-08T23:35:53.186Z,5.98
2022-10-08T23:38:20.316Z,5.83
2022-10-08T23:40:47.167Z,6.03
2022-10-08T23:43:14.012Z,5.78
2022-10-08T23:45:41.465Z,5.95
2022-10-08T23:48:08.538Z,6.01
2022-10-08T23:50:38.568Z,5.78
2022-10-08T23:53:05.697Z,5.84
2022-10-08T23:55:32.530Z,6.10
2022-10-08T23:57:59.373Z,6.15
